Time;durP1;ratioP1;P1;durP2;ratioP2;P2;SDS_P1;SDS_P2;PMS_P1;PMS_P2;Temp;Humidity;BMP_temperature;BMP_pressure;BME280_temperature;BME280_humidity;BME280_pressure;Samples;Min_cycle;Max_cycle;Signal;HPM_P1;HPM_P2
2022/01/19 00:00:38;;;;;;;0.10;0.10;;;;;;;5.88;67.00;103400.94;5012353;28;20037;-90
2022/01/19 00:03:04;;;;;;;0.20;0.20;;;;;;;5.85;66.73;103387.69;5012019;28;20129;-91
2022/01/19 00:05:30;;;;;;;0.10;0.10;;;;;;;5.82;66.74;103386.72;5012657;28;20034;-92
2022/01/19 00:07:57;;;;;;;0.10;0.10;;;;;;;5.77;66.89;103374.19;5012453;28;20037;-92
2022/01/19 00:10:27;;;;;;;0.10;0.10;;;;;;;5.71;66.69;103376.56;5013804;28;20029;-90
2022/01/19 00:12:56;;;;;;;0.20;0.20;;;;;;;5.69;66.88;103383.53;5013519;28;20129;-90
2022/01/19 00:15:23;;;;;;;0.63;0.63;;;;;;;5.65;67.17;103383.38;5013784;28;20038;-87
2022/01/19 00:17:54;;;;;;;0.10;0.10;;;;;;;5.65;66.93;103387.75;5008549;28;20026;-89
2022/01/19 00:20:22;;;;;;;0.10;0.10;;;;;;;5.60;66.72;103389.31;5012497;28;20069;-90
2022/01/19 00:22:53;;;;;;;0.10;0.10;;;;;;;5.56;66.76;103384.72;5012344;28;20033;-90
2022/01/19 00:25:20;;;;;;;0.20;0.20;;;;;;;5.48;66.79;103382.69;5011861;28;20042;-91
2022/01/19 00:27:47;;;;;;;0.20;0.20;;;;;;;5.43;66.60;103371.09;5011771;28;20395;-90
2022/01/19 00:30:14;;;;;;;0.10;0.10;;;;;;;5.39;66.74;103363.00;5012678;28;20496;-90
2022/01/19 00:32:41;;;;;;;0.20;0.20;;;;;;;5.30;66.83;103343.38;5009179;28;20443;-89
2022/01/19 00:35:09;;;;;;;0.20;0.20;;;;;;;5.23;66.73;103324.66;5009985;28;20026;-90
2022/01/19 00:37:36;;;;;;;0.15;0.15;;;;;;;5.19;66.29;103313.09;5010837;28;20608;-90
2022/01/19 00:40:04;;;;;;;0.10;0.10;;;;;;;5.10;66.69;103297.84;5011491;28;20045;-90
2022/01/19 00:42:30;;;;;;;0.50;0.50;;;;;;;5.06;66.38;103292.38;5011525;28;20481;-90
2022/01/19 00:44:57;;;;;;;0.80;0.57;;;;;;;4.99;66.47;103281.63;5010863;28;20123;-90
2022/01/19 00:47:23;;;;;;;0.15;0.15;;;;;;;4.96;66.70;103275.34;5008836;28;20124;-90
2022/01/19 00:49:50;;;;;;;0.20;0.20;;;;;;;4.93;66.96;103283.09;5011534;28;20029;-90
2022/01/19 00:52:18;;;;;;;0.10;0.10;;;;;;;4.91;66.84;103283.03;5012558;28;20084;-91
2022/01/19 00:54:44;;;;;;;0.20;0.20;;;;;;;4.91;66.87;103290.00;5012280;28;20473;-90
2022/01/19 00:57:10;;;;;;;0.20;0.20;;;;;;;4.86;66.94;103287.19;5010637;28;20485;-90
2022/01/19 00:59:37;;;;;;;1.40;1.40;;;;;;;4.84;67.05;103292.38;5009299;28;20030;-91
2022/01/19 01:02:04;;;;;;;0.20;0.20;;;;;;;4.85;66.94;103291.53;5011465;28;20041;-90
2022/01/19 01:04:32;;;;;;;0.13;0.13;;;;;;;4.84;66.65;103289.75;5009873;28;20030;-90
2022/01/19 01:06:59;;;;;;;0.10;0.10;;;;;;;4.84;67.31;103284.50;5007437;28;20057;-92
2022/01/19 01:09:26;;;;;;;0.20;0.20;;;;;;;4.81;67.06;103284.38;5011108;28;20460;-92
2022/01/19 01:15:29;;;;;;;0.10;0.10;;;;;;;4.75;66.90;103260.47;5054536;28;20458;-91
2022/01/19 01:20:20;;;;;;;0.20;0.20;;;;;;;4.53;66.68;103238.50;5043044;28;20033;-90
2022/01/19 01:22:47;;;;;;;0.10;0.10;;;;;;;4.42;66.72;103220.50;5051399;28;20060;-91
2022/01/19 01:25:13;;;;;;;0.10;0.10;;;;;;;4.36;66.53;103210.63;5037968;28;20026;-91
2022/01/19 01:27:40;;;;;;;0.30;0.30;;;;;;;4.33;66.57;103210.50;5041474;28;20067;-92
2022/01/19 01:30:08;;;;;;;0.10;0.10;;;;;;;4.29;66.89;103206.84;5049151;28;20664;-91
2022/01/19 01:32:34;;;;;;;0.10;0.10;;;;;;;4.29;67.05;103200.72;5046965;28;20068;-92
2022/01/19 01:35:01;;;;;;;0.13;0.13;;;;;;;4.28;66.95;103196.28;5048987;28;20022;-92
2022/01/19 01:37:27;;;;;;;0.10;0.10;;;;;;;4.27;67.30;103184.88;5038415;28;20084;-92
2022/01/19 01:39:53;;;;;;;0.15;0.15;;;;;;;4.30;67.43;103184.09;5048854;28;20476;-92
2022/01/19 01:42:21;;;;;;;0.20;0.20;;;;;;;4.32;67.54;103164.97;5048665;28;20083;-90
2022/01/19 01:44:51;;;;;;;0.28;0.28;;;;;;;4.35;67.72;103161.63;5049276;28;20036;-91
2022/01/19 01:47:18;;;;;;;0.88;0.88;;;;;;;4.32;67.34;103156.22;5048766;28;20117;-92
2022/01/19 01:55:26;;;;;;;0.17;0.17;;;;;;;4.50;67.82;103190.25;5051096;28;20449;-94
2022/01/19 01:57:52;;;;;;;0.20;0.20;;;;;;;4.49;68.98;103186.72;5039920;28;20037;-93
2022/01/19 02:00:22;;;;;;;1.55;1.45;;;;;;;4.61;68.29;103191.59;5042183;28;20442;-93
2022/01/19 02:02:49;;;;;;;0.65;0.65;;;;;;;4.64;68.40;103181.22;5040956;28;20036;-93
2022/01/19 02:05:17;;;;;;;0.10;0.10;;;;;;;4.68;68.32;103171.75;5037271;28;20037;-94
2022/01/19 02:21:40;;;;;;;0.20;0.20;;;;;;;4.86;68.27;103113.84;5039229;28;20124;-90
2022/01/19 02:24:11;;;;;;;0.82;0.82;;;;;;;4.90;68.14;103106.94;5039065;28;20389;-90
2022/01/19 02:30:18;;;;;;;0.20;0.20;;;;;;;5.00;67.98;103098.63;5078420;27;20443;-92
2022/01/19 02:40:50;;;;;;;2.22;1.20;;;;;;;5.11;68.24;103083.25;5037694;28;20202;-91
2022/01/19 02:43:22;;;;;;;0.20;0.20;;;;;;;5.14;68.23;103079.00;5037504;28;20029;-91
2022/01/19 02:49:16;;;;;;;0.20;0.20;;;;;;;5.22;68.10;103058.31;5047689;28;20041;-89
2022/01/19 02:51:32;;;;;;;0.38;0.38;;;;;;;5.25;68.22;103054.88;5045561;28;20172;-90
2022/01/19 02:54:08;;;;;;;0.20;0.20;;;;;;;5.25;68.18;103047.00;5049696;28;20028;-89
2022/01/19 02:56:38;;;;;;;0.25;0.25;;;;;;;5.24;67.88;103042.56;5037735;28;20040;-90
2022/01/19 02:59:15;;;;;;;0.28;0.28;;;;;;;5.25;67.80;103031.22;5047509;28;20065;-91
2022/01/19 03:09:56;;;;;;;0.20;0.20;;;;;;;5.18;67.33;103007.34;5076342;27;20430;-92
2022/01/19 03:12:22;;;;;;;5.15;0.82;;;;;;;5.15;67.46;102996.72;5061409;28;20041;-93
2022/01/19 03:14:48;;;;;;;0.10;0.10;;;;;;;5.11;67.45;102994.81;5050374;28;20075;-92
2022/01/19 03:17:14;;;;;;;0.38;0.38;;;;;;;5.09;67.45;102985.97;5046258;28;20025;-92
2022/01/19 03:19:41;;;;;;;0.10;0.10;;;;;;;5.07;67.61;102981.50;5046144;28;20037;-92
2022/01/19 03:22:08;;;;;;;0.20;0.20;;;;;;;5.04;67.64;102982.28;5045320;28;20053;-93
2022/01/19 03:24:38;;;;;;;0.15;0.15;;;;;;;5.02;67.51;102978.69;5045536;28;20021;-92
2022/01/19 03:27:05;;;;;;;0.20;0.20;;;;;;;4.99;67.17;102968.06;5048148;28;20036;-93
2022/01/19 03:29:31;;;;;;;0.20;0.20;;;;;;;4.95;67.12;102974.06;5049479;28;20431;-93
2022/01/19 03:31:58;;;;;;;1.65;0.85;;;;;;;4.91;67.40;102959.00;5047708;28;20059;-93
2022/01/19 03:34:24;;;;;;;0.10;0.10;;;;;;;4.89;67.00;102955.44;5043881;28;20143;-94
2022/01/19 03:36:50;;;;;;;2.10;1.85;;;;;;;4.86;67.19;102949.22;5037939;28;20053;-93
2022/01/19 03:39:16;;;;;;;0.10;0.10;;;;;;;4.90;67.11;102954.59;5042569;28;20029;-90
2022/01/19 03:41:42;;;;;;;0.30;0.30;;;;;;;4.95;67.55;102948.69;5046967;28;20503;-92
2022/01/19 03:44:10;;;;;;;0.20;0.20;;;;;;;4.99;67.34;102947.94;5048706;28;20034;-93
2022/01/19 03:46:43;;;;;;;0.40;0.40;;;;;;;5.01;67.21;102948.03;5048583;28;20037;-93
2022/01/19 03:49:12;;;;;;;0.40;0.40;;;;;;;5.02;67.10;102953.31;5042656;28;20033;-93
2022/01/19 03:51:38;;;;;;;0.10;0.10;;;;;;;5.05;67.18;102967.41;5043507;28;20056;-94
2022/01/19 03:54:04;;;;;;;2.28;1.38;;;;;;;5.06;67.50;102961.31;5047364;28;20115;-94
2022/01/19 03:56:31;;;;;;;0.13;0.13;;;;;;;5.11;67.42;102950.16;5049114;28;20040;-93
2022/01/19 03:58:57;;;;;;;0.10;0.10;;;;;;;5.15;67.51;102954.66;5040736;28;20041;-92
2022/01/19 04:01:23;;;;;;;0.10;0.10;;;;;;;5.15;67.77;102949.41;5049233;28;20044;-93
2022/01/19 04:09:47;;;;;;;0.10;0.10;;;;;;;5.23;67.46;102957.56;5080099;28;20412;-92
2022/01/19 04:12:18;;;;;;;0.10;0.10;;;;;;;5.28;67.95;102955.09;5061698;28;20059;-91
2022/01/19 04:14:45;;;;;;;0.30;0.30;;;;;;;5.32;67.71;102951.75;5056656;28;20110;-92
2022/01/19 04:17:14;;;;;;;1.75;1.52;;;;;;;5.38;67.92;102949.31;5047494;28;20429;-92
2022/01/19 04:19:44;;;;;;;0.10;0.10;;;;;;;5.45;68.06;102943.44;5047088;28;20052;-93
2022/01/19 04:22:14;;;;;;;0.20;0.20;;;;;;;5.51;67.87;102951.56;5051738;28;20021;-93
2022/01/19 04:24:41;;;;;;;0.15;0.15;;;;;;;5.56;67.97;102950.81;5053070;28;20481;-92
2022/01/19 04:27:32;;;;;;;0.10;0.10;;;;;;;5.62;68.12;102940.50;5045195;28;20465;-92
2022/01/19 04:32:49;;;;;;;0.10;0.10;;;;;;;5.81;68.19;102940.28;5075986;27;20421;-92
2022/01/19 04:35:21;;;;;;;0.20;0.20;;;;;;;5.87;68.29;102930.81;5043863;28;20056;-92
2022/01/19 04:47:06;;;;;;;0.10;0.10;;;;;;;6.13;68.45;102898.41;5043781;28;20059;-91
2022/01/19 04:49:13;;;;;;;0.10;0.10;;;;;;;6.18;68.33;102902.91;5046229;28;20077;-92
2022/01/19 05:03:02;;;;;;;0.30;0.30;;;;;;;6.50;68.60;102881.94;5065085;28;20423;-91
2022/01/19 05:05:27;;;;;;;0.38;0.38;;;;;;;6.54;68.46;102873.28;5047230;28;20037;-90
2022/01/19 05:07:58;;;;;;;0.10;0.10;;;;;;;6.55;68.42;102868.03;5033653;28;20029;-91
2022/01/19 05:13:32;;;;;;;4.75;1.45;;;;;;;6.63;68.37;102863.03;5120512;27;20763;-92
2022/01/19 05:15:57;;;;;;;0.15;0.15;;;;;;;6.69;68.54;102857.94;5086073;28;20499;-91
2022/01/19 05:18:23;;;;;;;4.05;1.08;;;;;;;6.75;68.56;102868.66;5090150;28;20036;-91
2022/01/19 05:20:49;;;;;;;0.52;0.52;;;;;;;6.77;68.53;102861.66;5089979;28;20119;-91
2022/01/19 05:23:16;;;;;;;0.20;0.20;;;;;;;6.82;68.63;102861.78;5089516;28;20369;-91
2022/01/19 05:25:44;;;;;;;0.30;0.30;;;;;;;6.87;68.64;102862.81;5089918;28;20395;-92
2022/01/19 05:28:11;;;;;;;0.22;0.22;;;;;;;6.91;68.66;102864.66;5089460;28;20088;-90
2022/01/19 05:30:37;;;;;;;0.20;0.20;;;;;;;6.95;68.59;102858.66;5089568;28;20111;-90
2022/01/19 05:33:04;;;;;;;0.85;0.85;;;;;;;6.95;68.11;102858.66;5089235;28;20112;-90
2022/01/19 05:35:30;;;;;;;0.50;0.50;;;;;;;6.98;68.03;102855.22;5089749;28;20051;-91
2022/01/19 05:37:59;;;;;;;0.10;0.10;;;;;;;7.02;68.32;102854.44;5089769;28;20035;-91
2022/01/19 05:40:25;;;;;;;0.60;0.60;;;;;;;7.02;68.41;102851.78;5088967;28;20436;-91
2022/01/19 05:42:52;;;;;;;2.83;0.52;;;;;;;7.03;68.26;102850.03;5090504;28;20032;-91
2022/01/19 05:45:18;;;;;;;0.10;0.10;;;;;;;7.02;68.28;102841.25;5089247;28;20024;-91
2022/01/19 05:47:45;;;;;;;1.45;0.55;;;;;;;7.04;68.21;102842.19;5089042;28;20071;-91
2022/01/19 05:50:12;;;;;;;0.20;0.20;;;;;;;7.03;68.19;102832.50;5091402;28;20037;-91
2022/01/19 05:52:39;;;;;;;0.20;0.20;;;;;;;7.04;67.98;102823.75;5092335;28;20032;-91
2022/01/19 05:55:05;;;;;;;0.40;0.40;;;;;;;7.03;68.20;102823.69;5093934;28;20097;-91
2022/01/19 05:57:32;;;;;;;0.10;0.10;;;;;;;7.01;67.72;102820.13;5088983;28;20035;-92
2022/01/19 05:59:59;;;;;;;0.10;0.10;;;;;;;6.99;67.87;102814.84;5089096;28;20119;-92
2022/01/19 06:02:25;;;;;;;0.10;0.10;;;;;;;6.97;67.92;102813.88;5083887;28;20110;-92
2022/01/19 06:04:52;;;;;;;2.05;1.95;;;;;;;6.97;67.91;102813.88;5083243;28;20075;-91
2022/01/19 06:07:18;;;;;;;1.02;1.02;;;;;;;6.99;67.75;102803.38;5089217;28;20041;-91
2022/01/19 06:12:28;;;;;;;0.20;0.20;;;;;;;6.99;67.67;102788.47;5085639;27;20778;-90
2022/01/19 06:14:54;;;;;;;0.38;0.38;;;;;;;6.98;67.66;102781.41;5057433;28;20091;-92
2022/01/19 06:17:20;;;;;;;0.70;0.70;;;;;;;6.97;67.49;102790.16;5050135;28;20034;-90
2022/01/19 06:19:49;;;;;;;0.57;0.57;;;;;;;6.99;67.79;102777.94;5041467;28;20084;-90
2022/01/19 06:22:17;;;;;;;0.30;0.30;;;;;;;6.99;67.90;102777.03;5032866;28;20045;-90
2022/01/19 06:24:44;;;;;;;0.20;0.20;;;;;;;6.96;67.55;102767.28;5048753;28;20108;-90
2022/01/19 06:27:11;;;;;;;0.75;0.50;;;;;;;6.96;67.94;102756.75;5046649;28;20084;-91
2022/01/19 06:29:37;;;;;;;0.10;0.10;;;;;;;6.95;67.91;102755.88;5041657;28;20033;-90
2022/01/19 06:32:04;;;;;;;0.10;0.10;;;;;;;6.98;67.81;102757.69;5042304;28;20040;-90
2022/01/19 06:34:30;;;;;;;0.10;0.10;;;;;;;7.01;67.92;102755.13;5044194;28;20090;-91
2022/01/19 06:36:56;;;;;;;0.10;0.10;;;;;;;6.99;67.78;102746.31;5050042;28;20037;-90
2022/01/19 06:39:25;;;;;;;0.60;0.60;;;;;;;7.03;67.78;102736.69;5039518;28;20468;-91
2022/01/19 06:41:51;;;;;;;0.35;0.35;;;;;;;7.02;67.73;102734.94;5043397;28;20030;-90
2022/01/19 06:44:18;;;;;;;0.52;0.52;;;;;;;7.00;67.64;102741.91;5051859;28;20503;-90
2022/01/19 06:46:44;;;;;;;0.10;0.10;;;;;;;6.97;67.66;102727.78;5050618;28;20131;-89
2022/01/19 06:49:11;;;;;;;0.50;0.50;;;;;;;6.96;67.82;102727.75;5040220;28;20057;-90
2022/01/19 06:51:38;;;;;;;1.42;1.33;;;;;;;6.98;68.05;102726.06;5046694;28;20183;-91
2022/01/19 06:54:04;;;;;;;0.80;0.80;;;;;;;6.99;67.96;102725.22;5050898;28;20033;-90
2022/01/19 06:56:36;;;;;;;0.10;0.10;;;;;;;7.00;68.05;102720.81;5042966;28;20034;-91
2022/01/19 06:59:02;;;;;;;1.65;1.55;;;;;;;6.98;67.92;102718.16;5037716;28;20041;-90
2022/01/19 07:01:32;;;;;;;0.35;0.35;;;;;;;7.01;68.11;102722.63;5041922;28;20039;-88
2022/01/19 07:04:00;;;;;;;1.00;1.00;;;;;;;6.99;68.48;102714.69;5036296;28;20030;-88
2022/01/19 07:06:26;;;;;;;0.20;0.20;;;;;;;6.99;68.26;102714.69;5044010;28;20026;-90
2022/01/19 07:08:53;;;;;;;0.30;0.30;;;;;;;7.04;68.42;102697.22;5044704;28;20116;-88
2022/01/19 07:11:19;;;;;;;0.85;0.85;;;;;;;6.96;68.39;102701.41;5042313;28;20029;-89
2022/01/19 07:13:45;;;;;;;0.45;0.45;;;;;;;6.99;68.83;102692.69;5042650;28;20116;-90
2022/01/19 07:16:11;;;;;;;0.40;0.40;;;;;;;7.02;69.12;102693.66;5041886;28;20040;-87
2022/01/19 07:18:37;;;;;;;1.73;1.65;;;;;;;7.02;69.03;102691.03;5039203;28;20472;-87
2022/01/19 07:21:03;;;;;;;1.65;1.55;;;;;;;7.11;68.89;102693.88;5042221;28;20065;-87
2022/01/19 07:23:30;;;;;;;0.10;0.10;;;;;;;7.11;68.95;102688.59;5023283;28;20041;-87
2022/01/19 07:25:56;;;;;;;0.63;0.63;;;;;;;7.17;68.77;102692.25;5026777;28;20029;-87
2022/01/19 07:28:22;;;;;;;0.20;0.20;;;;;;;7.18;68.92;102688.75;5020776;28;20034;-89
2022/01/19 07:30:49;;;;;;;0.55;0.55;;;;;;;7.15;68.60;102688.69;5015680;28;20033;-89
2022/01/19 07:33:15;;;;;;;0.10;0.10;;;;;;;7.15;68.84;102693.97;5025680;28;20034;-88
2022/01/19 07:35:45;;;;;;;0.20;0.20;;;;;;;7.22;68.61;102691.50;5032193;28;20033;-91
2022/01/19 07:38:12;;;;;;;0.20;0.20;;;;;;;7.19;68.76;102698.44;5030588;28;20087;-92
2022/01/19 07:40:38;;;;;;;0.20;0.20;;;;;;;7.24;69.04;102697.72;5022974;28;20044;-90
2022/01/19 07:43:04;;;;;;;2.78;1.80;;;;;;;7.20;68.64;102685.31;5031674;28;20064;-92
2022/01/19 07:45:31;;;;;;;0.65;0.65;;;;;;;7.26;68.92;102698.66;5026737;28;20508;-89
2022/01/19 07:47:57;;;;;;;0.80;0.80;;;;;;;7.32;68.87;102689.97;5030442;28;20480;-88
2022/01/19 07:50:23;;;;;;;1.25;1.25;;;;;;;7.30;68.60;102686.41;5023148;28;20037;-90
2022/01/19 07:52:49;;;;;;;0.70;0.70;;;;;;;7.34;69.00;102685.63;5026787;28;20030;-92
2022/01/19 07:55:15;;;;;;;0.20;0.20;;;;;;;7.37;68.92;102674.25;5026746;28;20041;-91
2022/01/19 07:57:47;;;;;;;0.95;0.95;;;;;;;7.35;68.72;102679.50;5028144;28;20095;-91
2022/01/19 08:00:14;;;;;;;1.08;1.08;;;;;;;7.38;68.54;102676.94;5027766;28;20601;-91
2022/01/19 08:02:40;;;;;;;0.10;0.10;;;;;;;7.38;68.74;102669.00;5027490;28;20026;-92
2022/01/19 08:05:08;;;;;;;0.40;0.40;;;;;;;7.40;68.91;102669.94;5026826;28;20504;-91
2022/01/19 08:07:35;;;;;;;0.30;0.30;;;;;;;7.42;68.65;102668.22;5028023;28;20496;-91
2022/01/19 08:10:04;;;;;;;1.00;0.75;;;;;;;7.42;68.74;102667.34;5023934;28;20652;-91
2022/01/19 08:12:30;;;;;;;1.20;1.20;;;;;;;7.40;68.36;102654.13;5021789;28;20120;-92
2022/01/19 08:14:58;;;;;;;11.30;1.83;;;;;;;7.45;68.60;102646.28;5027863;28;20384;-92
2022/01/19 08:17:26;;;;;;;0.52;0.52;;;;;;;7.47;68.65;102638.44;5027630;28;20424;-92
2022/01/19 08:19:54;;;;;;;1.05;0.95;;;;;;;7.47;68.93;102644.59;5024451;28;20498;-94
2022/01/19 08:22:20;;;;;;;0.10;0.10;;;;;;;7.51;68.59;102641.16;5025704;28;20056;-92
2022/01/19 08:24:46;;;;;;;0.35;0.35;;;;;;;7.50;68.78;102638.50;5024510;28;20034;-92
2022/01/19 08:27:13;;;;;;;0.70;0.70;;;;;;;7.56;68.65;102636.91;5025042;28;20048;-93
2022/01/19 08:29:39;;;;;;;0.73;0.73;;;;;;;7.57;68.67;102645.69;5023068;28;20071;-93
2022/01/19 08:32:06;;;;;;;0.10;0.10;;;;;;;7.57;68.54;102650.97;5024385;28;20048;-94
2022/01/19 08:34:33;;;;;;;3.47;0.65;;;;;;;7.60;68.47;102643.09;5020908;28;20060;-89
2022/01/19 08:37:00;;;;;;;0.10;0.10;;;;;;;7.61;68.79;102635.25;5022873;28;20041;-93
2022/01/19 08:39:27;;;;;;;0.10;0.10;;;;;;;7.64;68.63;102642.31;5027339;28;20030;-89
2022/01/19 08:41:54;;;;;;;0.38;0.38;;;;;;;7.67;68.35;102642.38;5024567;28;20029;-91
2022/01/19 08:44:21;;;;;;;0.10;0.10;;;;;;;7.66;68.31;102630.03;5027625;28;20047;-90
2022/01/19 08:46:48;;;;;;;0.20;0.20;;;;;;;7.66;67.83;102632.69;5027007;28;20022;-91
2022/01/19 08:49:15;;;;;;;0.65;0.65;;;;;;;7.69;68.07;102626.56;5020807;28;20444;-93
2022/01/19 08:51:41;;;;;;;0.63;0.63;;;;;;;7.68;68.33;102625.69;5021929;28;20439;-91
2022/01/19 08:54:08;;;;;;;0.20;0.20;;;;;;;7.64;68.01;102623.84;5027768;28;20037;-87
2022/01/19 08:56:34;;;;;;;2.17;1.92;;;;;;;7.57;68.42;102614.91;5032647;28;20140;-90
2022/01/19 08:59:00;;;;;;;0.47;0.47;;;;;;;7.61;68.27;102606.22;5031939;28;20052;-91
2022/01/19 09:01:26;;;;;;;0.98;0.98;;;;;;;7.59;68.09;102605.28;5032506;28;20108;-90
2022/01/19 09:03:52;;;;;;;1.67;1.27;;;;;;;7.62;68.16;102601.81;5033328;28;20029;-89
2022/01/19 09:06:19;;;;;;;1.42;1.38;;;;;;;7.53;68.23;102612.19;5033779;28;20044;-85
2022/01/19 09:08:46;;;;;;;0.10;0.10;;;;;;;7.60;68.13;102598.25;5033730;28;20060;-91
2022/01/19 09:11:12;;;;;;;0.25;0.25;;;;;;;7.54;68.35;102588.47;5033316;28;20049;-86
2022/01/19 09:13:39;;;;;;;3.92;2.67;;;;;;;7.60;68.27;102587.69;5033802;28;20030;-92
2022/01/19 09:16:07;;;;;;;0.43;0.43;;;;;;;7.51;68.71;102587.53;5035361;28;20037;-94
2022/01/19 09:18:33;;;;;;;1.98;1.67;;;;;;;7.52;68.53;102589.31;5027324;28;20036;-88
2022/01/19 09:21:22;;;;;;;2.40;2.30;;;;;;;7.52;68.32;102578.75;5016830;28;20105;-94
2022/01/19 09:23:50;;;;;;;0.30;0.30;;;;;;;7.55;68.29;102566.53;5031104;28;20106;-96
2022/01/19 09:26:17;;;;;;;0.20;0.20;;;;;;;7.53;68.61;102564.72;5075251;22;20044;-84
2022/01/19 09:28:43;;;;;;;0.10;0.10;;;;;;;7.52;68.28;102557.66;5064735;28;20028;-85
2022/01/19 09:31:12;;;;;;;0.55;0.55;;;;;;;7.49;68.62;102547.03;5062340;28;20043;-83
2022/01/19 09:33:41;;;;;;;5.15;2.70;;;;;;;7.46;69.22;102537.31;5067029;28;20032;-85
2022/01/19 09:36:29;;;;;;;0.20;0.20;;;;;;;7.55;68.74;102526.97;5066586;28;20029;-85
2022/01/19 09:38:53;;;;;;;3.55;1.88;;;;;;;7.53;68.54;102527.78;5054498;28;20694;-80
2022/01/19 09:41:20;;;;;;;0.85;0.85;;;;;;;7.55;68.83;102526.06;5043458;28;20025;-80
2022/01/19 09:43:46;;;;;;;1.20;1.20;;;;;;;7.50;68.60;102519.81;5047876;28;20033;-84
2022/01/19 09:46:13;;;;;;;0.10;0.10;;;;;;;7.54;69.00;102524.25;5052859;28;20029;-84
2022/01/19 09:48:40;;;;;;;0.20;0.20;;;;;;;7.63;68.34;102528.84;5050662;28;20036;-85
2022/01/19 09:51:06;;;;;;;0.17;0.17;;;;;;;7.61;68.08;102532.34;5048502;28;20041;-84
2022/01/19 09:53:33;;;;;;;0.52;0.52;;;;;;;7.57;68.41;102535.78;5058853;28;20472;-84
2022/01/19 09:55:59;;;;;;;8.25;1.20;;;;;;;7.53;68.93;102528.66;5044753;28;20074;-84
2022/01/19 09:58:25;;;;;;;0.40;0.40;;;;;;;7.55;68.32;102526.06;5053413;28;20035;-84
2022/01/19 10:00:52;;;;;;;1.95;1.85;;;;;;;7.65;68.08;102529.75;5051872;28;20124;-84
2022/01/19 10:03:25;;;;;;;0.20;0.20;;;;;;;7.56;68.53;102528.75;5055942;28;20472;-85
2022/01/19 10:06:09;;;;;;;0.13;0.13;;;;;;;7.69;68.45;102532.50;5061827;28;20545;-84
2022/01/19 10:22:30;;;;;;;0.47;0.47;;;;;;;7.50;68.20;102554.09;5072079;27;20415;-84
2022/01/19 10:25:00;;;;;;;0.85;0.85;;;;;;;7.56;68.14;102559.50;5061745;28;20112;-85
2022/01/19 10:27:32;;;;;;;2.00;1.92;;;;;;;7.53;67.81;102540.97;5061801;28;20597;-84
2022/01/19 10:32:52;;;;;;;0.10;0.10;;;;;;;7.55;68.11;102529.59;5020338;28;20424;-84
2022/01/19 10:35:38;;;;;;;0.75;0.75;;;;;;;7.63;67.69;102535.03;4999682;28;20083;-84
2022/01/19 10:49:06;;;;;;;0.40;0.40;;;;;;;7.52;67.86;102508.41;5060451;28;20453;-84
2022/01/19 10:51:43;;;;;;;0.95;0.95;;;;;;;7.53;67.91;102504.94;5065836;28;20036;-84
2022/01/19 10:56:54;;;;;;;1.02;1.02;;;;;;;7.61;68.43;102481.31;5029596;28;20045;-89
2022/01/19 10:59:26;;;;;;;0.95;0.95;;;;;;;7.82;68.05;102472.91;5030760;28;20030;-90
2022/01/19 11:01:56;;;;;;;2.38;2.25;;;;;;;7.78;67.41;102465.81;5031461;28;20022;-92
2022/01/19 11:04:29;;;;;;;0.50;0.50;;;;;;;7.92;67.42;102458.13;5030512;28;20074;-91
2022/01/19 11:10:01;;;;;;;0.32;0.32;;;;;;;7.92;67.99;102442.28;5089904;27;20477;-92
2022/01/19 11:12:31;;;;;;;0.63;0.63;;;;;;;7.94;67.54;102435.31;5070725;28;20036;-92
2022/01/19 11:15:08;;;;;;;0.30;0.30;;;;;;;8.10;67.63;102426.75;5063163;28;20123;-92
2022/01/19 11:18:06;;;;;;;0.82;0.82;;;;;;;8.15;67.32;102420.66;5051571;28;20029;-94
2022/01/19 11:20:53;;;;;;;0.20;0.20;;;;;;;8.17;67.06;102422.44;5052474;28;20116;-96
2022/01/19 11:23:51;;;;;;;0.50;0.50;;;;;;;8.13;67.07;102422.41;5054522;28;20028;-96
2022/01/19 11:26:22;;;;;;;0.10;0.10;;;;;;;8.14;66.71;102414.50;5054476;28;20064;-95
2022/01/19 11:28:53;;;;;;;0.60;0.60;;;;;;;8.16;67.43;102417.16;5052214;28;20033;-94
2022/01/19 11:31:37;;;;;;;0.50;0.38;;;;;;;8.24;66.34;102415.53;5051335;28;20033;-92
2022/01/19 11:34:04;;;;;;;1.60;1.50;;;;;;;8.16;66.77;102404.88;5049841;28;20025;-94
2022/01/19 11:36:36;;;;;;;2.25;2.15;;;;;;;8.32;66.71;102405.06;5051211;28;20033;-94
2022/01/19 11:42:43;;;;;;;0.30;0.30;;;;;;;8.45;66.80;102388.53;5071001;28;20450;-92
2022/01/19 11:45:38;;;;;;;0.50;0.50;;;;;;;8.51;66.52;102374.53;5035061;28;20048;-90
2022/01/19 11:48:15;;;;;;;0.10;0.10;;;;;;;8.40;66.39;102375.25;5030965;28;20029;-93
2022/01/19 11:50:42;;;;;;;2.35;2.25;;;;;;;8.48;66.18;102369.25;5031388;28;20044;-92
2022/01/19 11:53:13;;;;;;;0.20;0.20;;;;;;;8.66;66.37;102358.00;5032149;28;20041;-92
2022/01/19 11:56:01;;;;;;;0.52;0.52;;;;;;;8.64;65.98;102355.34;5031139;28;20026;-93
2022/01/19 11:58:27;;;;;;;0.50;0.50;;;;;;;8.77;66.38;102353.72;5033795;28;20037;-91
2022/01/19 12:00:56;;;;;;;0.30;0.30;;;;;;;8.69;66.09;102363.34;5036183;28;20453;-96
2022/01/19 12:06:03;;;;;;;0.73;0.57;;;;;;;8.76;66.05;102343.16;5078462;27;20981;-92
2022/01/19 12:11:17;;;;;;;0.63;0.63;;;;;;;8.79;65.20;102315.00;5137614;27;20371;-95
2022/01/19 12:14:38;;;;;;;0.35;0.35;;;;;;;8.87;65.63;102315.06;5134896;28;20031;-96
2022/01/19 12:19:43;;;;;;;2.17;2.07;;;;;;;8.77;65.79;102314.09;5042502;27;1357193;-93
2022/01/19 12:22:28;;;;;;;0.10;0.10;;;;;;;8.84;65.93;102304.50;5090958;28;20040;-92
2022/01/19 12:25:02;;;;;;;1.00;1.00;;;;;;;8.68;65.77;102299.00;5084813;28;20419;-93
2022/01/19 12:27:34;;;;;;;0.30;0.30;;;;;;;8.79;65.34;102300.91;5071009;28;20079;-93
2022/01/19 12:43:37;;;;;;;0.30;0.30;;;;;;;8.66;65.87;102284.91;6152423;22;4033640;-90
2022/01/19 12:46:36;;;;;;;2.75;2.65;;;;;;;8.78;65.38;102283.28;6316933;22;20057;-93
2022/01/19 12:49:27;;;;;;;0.70;0.70;;;;;;;8.63;66.04;102274.31;6317602;22;20003;-91
2022/01/19 12:51:54;;;;;;;0.88;0.80;;;;;;;8.51;65.99;102263.59;6316920;22;20357;-91
2022/01/19 12:54:27;;;;;;;0.45;0.45;;;;;;;8.57;65.68;102255.75;6317135;22;20429;-92
2022/01/19 12:59:35;;;;;;;1.37;1.37;;;;;;;8.60;66.20;102242.56;5042776;27;1368697;-90
2022/01/19 13:02:03;;;;;;;1.08;1.08;;;;;;;8.61;66.17;102232.88;5091300;28;20464;-86
2022/01/19 13:04:33;;;;;;;1.88;1.58;;;;;;;8.67;66.04;102238.22;5087782;28;20075;-82
2022/01/19 13:07:20;;;;;;;1.65;1.50;;;;;;;8.65;65.99;102225.00;5070750;28;20028;-88
2022/01/19 13:12:49;;;;;;;0.47;0.47;;;;;;;8.66;65.95;102242.66;5127409;27;20384;-87
2022/01/19 13:15:17;;;;;;;0.75;0.75;;;;;;;8.67;66.04;102236.50;5111095;28;20057;-86
2022/01/19 13:17:52;;;;;;;0.95;0.95;;;;;;;8.73;65.81;102226.00;5111957;28;20028;-86
2022/01/19 13:20:24;;;;;;;2.80;2.60;;;;;;;8.65;66.04;102203.88;5111455;28;20492;-87
2022/01/19 13:22:53;;;;;;;0.30;0.30;;;;;;;8.69;65.51;102191.59;5111356;28;20126;-88
2022/01/19 13:28:04;;;;;;;2.15;0.93;;;;;;;8.72;65.87;102181.94;5089866;27;20444;-89
2022/01/19 13:30:32;;;;;;;0.22;0.22;;;;;;;8.81;65.26;102193.44;5071308;28;20136;-88
2022/01/19 13:33:09;;;;;;;0.40;0.40;;;;;;;8.88;65.64;102182.06;5071316;28;20035;-88
2022/01/19 13:35:36;;;;;;;0.30;0.30;;;;;;;8.79;65.82;102179.34;5057930;28;20113;-87
2022/01/19 13:38:11;;;;;;;1.15;1.15;;;;;;;8.85;65.49;102180.28;5045642;28;20030;-88
2022/01/19 13:40:40;;;;;;;0.35;0.35;;;;;;;8.79;65.58;102174.06;5039638;28;20097;-89
2022/01/19 13:49:53;;;;;;;1.08;0.63;;;;;;;8.72;65.15;102152.88;5046879;28;20403;-86
2022/01/19 13:52:27;;;;;;;0.82;0.82;;;;;;;8.80;65.11;102155.56;5043230;28;20025;-87
2022/01/19 13:54:54;;;;;;;0.10;0.10;;;;;;;8.80;64.95;102152.94;5048274;28;20094;-86
2022/01/19 13:57:31;;;;;;;0.20;0.20;;;;;;;8.88;65.58;102155.63;5046029;28;20040;-87
2022/01/19 14:00:10;;;;;;;0.20;0.20;;;;;;;8.92;65.51;102138.03;5047342;28;20454;-86
2022/01/19 14:03:18;;;;;;;0.10;0.10;;;;;;;8.87;65.32;102141.53;5046319;28;20051;-86
2022/01/19 14:05:48;;;;;;;1.42;1.38;;;;;;;8.73;65.91;102146.72;5034654;28;20538;-86
2022/01/19 14:09:15;;;;;;;0.40;0.40;;;;;;;8.86;65.42;102149.44;5038287;28;20506;-86
2022/01/19 14:12:16;;;;;;;0.43;0.43;;;;;;;8.81;65.25;102146.78;5046075;28;20495;-87
2022/01/19 14:14:55;;;;;;;1.10;1.10;;;;;;;8.76;66.41;102144.94;5041205;28;20036;-87
2022/01/19 14:20:19;;;;;;;0.40;0.40;;;;;;;8.66;67.07;102139.59;5054937;28;20449;-86
2022/01/19 14:22:48;;;;;;;1.83;1.67;;;;;;;8.57;67.09;102142.16;5044884;28;20037;-85
2022/01/19 14:25:18;;;;;;;1.33;1.30;;;;;;;8.68;67.09;102144.88;5052446;28;20055;-85